createdAt,value
2023-01-30T00:01:33.835Z,-2.25
2023-01-30T00:04:02.126Z,-2.26
2023-01-30T00:06:31.517Z,-2.26
2023-01-30T00:08:59.789Z,-2.27
2023-01-30T00:11:32.360Z,-2.28
2023-01-30T00:14:01.863Z,-2.28
2023-01-30T00:16:33.252Z,-2.27
2023-01-30T00:19:04.553Z,-2.24
2023-01-30T00:21:33.136Z,-2.20
2023-01-30T00:24:01.821Z,-2.15
2023-01-30T00:26:30.327Z,-2.13
2023-01-30T00:28:59.295Z,-2.10
2023-01-30T00:31:31.381Z,-2.09
2023-01-30T00:34:00.038Z,-2.05
2023-01-30T00:36:28.625Z,-2.01
2023-01-30T00:38:58.656Z,-1.98
2023-01-30T00:41:46.879Z,-2.10
2023-01-30T00:44:34.197Z,-2.19
2023-01-30T00:47:05.543Z,-2.22
2023-01-30T00:49:36.580Z,-2.20
2023-01-30T00:52:05.484Z,-2.24
2023-01-30T00:54:34.776Z,-2.30
2023-01-30T00:57:03.144Z,-2.32
2023-01-30T00:59:33.159Z,-2.22
2023-01-30T01:02:01.790Z,-2.17
2023-01-30T01:04:33.193Z,-2.14
2023-01-30T01:07:04.442Z,-2.16
2023-01-30T01:09:32.814Z,-2.17
2023-01-30T01:12:01.393Z,-2.16
2023-01-30T01:14:31.099Z,-2.16
2023-01-30T01:17:00.837Z,-2.16
2023-01-30T01:19:29.493Z,-2.13
2023-01-30T01:21:58.174Z,-2.13
2023-01-30T01:24:28.088Z,-2.16
2023-01-30T01:26:56.465Z,-2.19
2023-01-30T01:29:25.048Z,-2.19
2023-01-30T01:31:53.538Z,-2.18
2023-01-30T01:34:24.357Z,-2.20
2023-01-30T01:36:53.874Z,-2.21
2023-01-30T01:39:23.463Z,-2.22
2023-01-30T01:41:52.051Z,-2.22
2023-01-30T01:44:20.943Z,-2.22
2023-01-30T01:46:55.574Z,-2.24
2023-01-30T01:49:32.947Z,-2.23
2023-01-30T01:52:04.409Z,-2.25
2023-01-30T01:54:54.278Z,-2.27
2023-01-30T01:57:32.995Z,-2.29
2023-01-30T02:00:11.829Z,-2.29
2023-01-30T02:02:46.746Z,-2.28
2023-01-30T02:05:16.369Z,-2.26
2023-01-30T02:07:46.579Z,-2.27
2023-01-30T02:10:22.015Z,-2.25
2023-01-30T02:12:50.922Z,-2.25
2023-01-30T02:15:20.087Z,-2.25
2023-01-30T02:17:48.637Z,-2.24
2023-01-30T02:20:27.302Z,-2.23
2023-01-30T02:23:08.066Z,-2.23
2023-01-30T02:25:56.496Z,-2.20
2023-01-30T02:28:34.509Z,-2.19
2023-01-30T02:31:21.381Z,-2.18
2023-01-30T02:33:53.586Z,-2.16
2023-01-30T02:36:42.034Z,-2.15
2023-01-30T02:39:19.727Z,-2.14
2023-01-30T02:41:58.255Z,-2.15
2023-01-30T02:44:50.486Z,-2.14
2023-01-30T02:47:28.583Z,-2.13
2023-01-30T02:50:00.934Z,-2.12
2023-01-30T02:52:29.943Z,-2.09
2023-01-30T02:54:58.628Z,-2.05
2023-01-30T02:57:27.566Z,-2.03
2023-01-30T02:59:59.684Z,-2.01
2023-01-30T03:02:40.502Z,-2.00
2023-01-30T03:05:37.091Z,-1.98
2023-01-30T03:08:18.405Z,-1.97
2023-01-30T03:11:08.349Z,-1.97
2023-01-30T03:13:55.393Z,-1.98
2023-01-30T03:16:27.152Z,-2.03
2023-01-30T03:18:56.005Z,-1.94
2023-01-30T03:21:24.487Z,-1.95
2023-01-30T03:23:53.892Z,-1.91
2023-01-30T03:26:24.714Z,-1.82
2023-01-30T03:28:53.302Z,-1.91
2023-01-30T03:31:22.089Z,-1.93
2023-01-30T03:33:50.777Z,-1.91
2023-01-30T03:36:19.459Z,-1.90
2023-01-30T03:38:48.041Z,-1.91
2023-01-30T03:41:16.617Z,-1.96
2023-01-30T03:43:45.207Z,-1.94
2023-01-30T03:46:14.019Z,-1.96
2023-01-30T03:48:42.671Z,-1.96
2023-01-30T03:51:13.414Z,-1.99
2023-01-30T03:53:42.186Z,-1.99
2023-01-30T03:56:11.512Z,-2.01
2023-01-30T03:58:41.511Z,-1.97
2023-01-30T04:01:26.775Z,-1.94
2023-01-30T04:03:55.868Z,-2.02
2023-01-30T04:06:24.367Z,-2.01
2023-01-30T04:08:54.053Z,-2.00
2023-01-30T04:11:32.976Z,-2.00
2023-01-30T04:14:01.664Z,-2.00
2023-01-30T04:16:30.465Z,-1.99
2023-01-30T04:19:17.459Z,-2.01
2023-01-30T04:21:46.462Z,-2.03
2023-01-30T04:24:15.197Z,-2.03
2023-01-30T04:26:43.695Z,-2.03
2023-01-30T04:29:12.823Z,-2.02
2023-01-30T04:31:41.756Z,-2.01
2023-01-30T04:34:22.779Z,-1.99
2023-01-30T04:36:51.355Z,-1.98
2023-01-30T04:39:21.224Z,-1.98
2023-01-30T04:41:50.979Z,-1.97
2023-01-30T04:44:19.248Z,-1.96
2023-01-30T04:47:09.548Z,-1.94
2023-01-30T04:49:38.427Z,-1.95
2023-01-30T04:52:07.417Z,-1.97
2023-01-30T04:54:38.763Z,-1.98
2023-01-30T04:57:07.858Z,-2.00
2023-01-30T04:59:36.440Z,-2.05
2023-01-30T05:02:06.648Z,-2.05
2023-01-30T05:04:36.058Z,-2.05
2023-01-30T05:07:04.537Z,-2.05
2023-01-30T05:09:33.328Z,-2.01
2023-01-30T05:12:01.704Z,-2.00
2023-01-30T05:14:30.997Z,-1.98
2023-01-30T05:16:59.595Z,-1.94
2023-01-30T05:19:27.958Z,-1.95
2023-01-30T05:21:56.950Z,-1.95
2023-01-30T05:24:25.447Z,-1.88
2023-01-30T05:26:53.725Z,-1.84
2023-01-30T05:29:22.017Z,-1.81
2023-01-30T05:31:50.380Z,-1.80
2023-01-30T05:34:18.946Z,-1.83
2023-01-30T05:36:47.516Z,-1.87
2023-01-30T05:39:16.095Z,-1.86
2023-01-30T05:41:44.791Z,-1.86
2023-01-30T05:44:13.164Z,-1.85
2023-01-30T05:46:41.597Z,-1.87
2023-01-30T05:49:10.220Z,-1.87
2023-01-30T05:51:39.000Z,-1.87
2023-01-30T05:54:09.021Z,-1.89
2023-01-30T05:56:37.810Z,-1.90
2023-01-30T05:59:06.180Z,-1.92
2023-01-30T06:01:37.832Z,-1.92
2023-01-30T06:04:07.009Z,-1.92
2023-01-30T06:06:35.412Z,-1.90
2023-01-30T06:09:04.923Z,-1.85
2023-01-30T06:11:33.185Z,-1.85
2023-01-30T06:14:01.775Z,-1.84
2023-01-30T06:16:30.674Z,-1.80
2023-01-30T06:18:59.566Z,-1.80
2023-01-30T06:21:28.638Z,-1.81
2023-01-30T06:23:57.121Z,-1.79
2023-01-30T06:26:25.831Z,-1.78
2023-01-30T06:28:54.382Z,-1.74
2023-01-30T06:31:22.904Z,-1.74
2023-01-30T06:33:51.438Z,-1.72
2023-01-30T06:36:19.927Z,-1.72
2023-01-30T06:38:49.014Z,-1.67
2023-01-30T06:41:17.417Z,-1.67
2023-01-30T06:43:46.001Z,-1.65
2023-01-30T06:46:15.569Z,-1.60
2023-01-30T06:48:45.262Z,-1.57
2023-01-30T06:51:13.660Z,-1.55
2023-01-30T06:53:43.999Z,-1.54
2023-01-30T06:56:12.388Z,-1.54
2023-01-30T06:58:40.855Z,-1.50
2023-01-30T07:01:10.805Z,-1.49
2023-01-30T07:03:39.348Z,-1.47
2023-01-30T07:06:07.620Z,-1.43
2023-01-30T07:08:37.697Z,-1.43
2023-01-30T07:11:06.259Z,-1.39
2023-01-30T07:13:34.817Z,-1.40
2023-01-30T07:16:03.139Z,-1.39
2023-01-30T07:18:32.875Z,-1.37
2023-01-30T07:21:01.463Z,-1.37
2023-01-30T07:23:29.928Z,-1.35
2023-01-30T07:25:58.305Z,-1.35
2023-01-30T07:28:26.752Z,-1.33
2023-01-30T07:30:55.343Z,-1.32
2023-01-30T07:33:24.020Z,-1.31
2023-01-30T07:35:52.317Z,-1.29
2023-01-30T07:38:20.520Z,-1.27
2023-01-30T07:40:48.871Z,-1.21
2023-01-30T07:43:17.289Z,-1.20
2023-01-30T07:45:47.504Z,-1.20
2023-01-30T07:48:19.569Z,-1.17
2023-01-30T07:50:48.836Z,-1.18
2023-01-30T07:53:18.669Z,-1.14
2023-01-30T07:55:47.230Z,-1.11
2023-01-30T07:58:16.327Z,-1.04
2023-01-30T08:00:45.234Z,-1.00
2023-01-30T08:03:14.509Z,-0.96
2023-01-30T08:05:44.222Z,-0.93
2023-01-30T08:08:12.937Z,-0.89
2023-01-30T08:10:41.681Z,-0.87
2023-01-30T08:13:09.964Z,-0.83
2023-01-30T08:15:38.543Z,-0.80
2023-01-30T08:18:08.554Z,-0.80
2023-01-30T08:20:37.728Z,-0.78
2023-01-30T08:23:07.760Z,-0.78
2023-01-30T08:25:38.288Z,-0.76
2023-01-30T08:28:06.767Z,-0.75
2023-01-30T08:30:35.476Z,-0.74
2023-01-30T08:33:04.417Z,-0.70
2023-01-30T08:35:34.102Z,-0.66
2023-01-30T08:38:09.210Z,-0.59
2023-01-30T08:40:38.076Z,-0.54
2023-01-30T08:43:07.168Z,-0.52
2023-01-30T08:45:36.164Z,-0.50
2023-01-30T08:48:06.115Z,-0.46
2023-01-30T08:50:35.380Z,-0.41
2023-01-30T08:53:07.938Z,-0.32
2023-01-30T08:55:36.526Z,-0.29
2023-01-30T08:58:05.307Z,-0.29
2023-01-30T09:00:34.104Z,-0.21
2023-01-30T09:03:02.985Z,-0.19
2023-01-30T09:05:36.277Z,-0.26
2023-01-30T09:08:05.922Z,-0.27
2023-01-30T09:10:34.673Z,-0.28
2023-01-30T09:13:23.127Z,-0.28
2023-01-30T09:15:54.673Z,-0.23
2023-01-30T09:18:24.027Z,-0.14
2023-01-30T09:20:53.954Z,-0.10
2023-01-30T09:23:22.385Z,-0.06
2023-01-30T09:25:51.858Z,0.01
2023-01-30T09:28:22.082Z,0.06
2023-01-30T09:30:50.480Z,0.08
2023-01-30T09:33:20.513Z,-0.02
2023-01-30T09:35:49.512Z,-0.03
2023-01-30T09:38:18.168Z,-0.02
2023-01-30T09:41:47.706Z,0.03
2023-01-30T09:44:46.471Z,0.06
2023-01-30T09:47:18.575Z,0.06
2023-01-30T09:50:03.571Z,0.08
2023-01-30T09:52:37.990Z,0.12
2023-01-30T09:55:23.877Z,0.15
2023-01-30T09:57:52.568Z,0.18
2023-01-30T10:00:37.422Z,0.20
2023-01-30T10:03:09.002Z,0.24
2023-01-30T10:05:48.856Z,0.25
2023-01-30T10:08:36.157Z,0.26
2023-01-30T10:11:16.196Z,0.29
2023-01-30T10:14:09.367Z,0.36
2023-01-30T10:17:01.452Z,0.41
2023-01-30T10:19:50.116Z,0.45
2023-01-30T10:22:24.655Z,0.49
2023-01-30T10:25:20.817Z,0.51
2023-01-30T10:27:54.913Z,0.52
2023-01-30T10:30:23.313Z,0.55
2023-01-30T10:33:02.389Z,0.59
2023-01-30T10:35:34.310Z,0.64
2023-01-30T10:38:22.227Z,0.68
2023-01-30T10:41:05.071Z,0.69
2023-01-30T10:43:46.006Z,0.74
2023-01-30T10:46:43.547Z,0.78
2023-01-30T10:49:15.716Z,0.84
2023-01-30T10:51:55.657Z,0.88
2023-01-30T10:54:32.840Z,0.91
2023-01-30T10:57:42.816Z,0.94
2023-01-30T11:00:48.429Z,1.00
2023-01-30T11:03:35.563Z,1.01
2023-01-30T11:06:26.280Z,1.04
2023-01-30T11:08:55.446Z,1.06
2023-01-30T11:11:30.525Z,1.11
2023-01-30T11:14:10.455Z,1.15
2023-01-30T11:16:48.232Z,1.21
2023-01-30T11:19:21.127Z,1.27
2023-01-30T11:21:52.087Z,1.35
2023-01-30T11:24:23.623Z,1.42
2023-01-30T11:26:53.694Z,1.49
2023-01-30T11:29:30.159Z,1.53
2023-01-30T11:32:03.876Z,1.56
2023-01-30T11:34:32.354Z,1.60
2023-01-30T11:37:25.412Z,1.63
2023-01-30T11:39:54.004Z,1.60
2023-01-30T11:42:30.595Z,1.54
2023-01-30T11:45:16.641Z,1.54
2023-01-30T11:56:42.988Z,1.51
2023-01-30T11:59:28.104Z,1.46
2023-01-30T12:02:24.275Z,1.42
2023-01-30T12:04:55.897Z,1.38
2023-01-30T12:07:29.022Z,1.32
2023-01-30T12:10:27.893Z,1.30
2023-01-30T12:12:59.014Z,1.32
2023-01-30T12:15:34.365Z,1.33
2023-01-30T12:18:39.283Z,1.30
2023-01-30T12:21:26.709Z,1.32
2023-01-30T12:24:21.195Z,1.27
2023-01-30T12:27:02.371Z,1.25
2023-01-30T12:29:34.335Z,1.24
2023-01-30T12:32:05.882Z,1.20
2023-01-30T12:34:34.360Z,1.20
2023-01-30T12:37:43.904Z,1.22
2023-01-30T12:40:25.796Z,1.20
2023-01-30T12:43:00.331Z,1.21
2023-01-30T12:45:31.458Z,1.17
2023-01-30T12:48:02.816Z,1.09
2023-01-30T12:50:55.651Z,1.06
2023-01-30T12:53:37.956Z,1.01
2023-01-30T13:04:14.267Z,1.06
2023-01-30T13:07:01.896Z,1.07
2023-01-30T13:09:38.672Z,1.11
2023-01-30T13:12:29.460Z,1.14
2023-01-30T13:15:18.949Z,1.14
2023-01-30T13:18:03.958Z,1.17
2023-01-30T13:20:32.756Z,1.18
2023-01-30T13:23:19.502Z,1.15
2023-01-30T13:25:56.278Z,1.11
2023-01-30T13:28:32.755Z,1.13
2023-01-30T13:31:03.267Z,1.20
2023-01-30T13:33:39.717Z,1.21
2023-01-30T13:36:38.639Z,1.19
2023-01-30T13:39:56.167Z,1.14
2023-01-30T13:42:35.687Z,1.11
2023-01-30T13:45:05.627Z,1.05
2023-01-30T13:47:40.023Z,1.06
2023-01-30T13:50:21.769Z,1.08
2023-01-30T13:53:10.445Z,1.00
2023-01-30T13:56:16.242Z,1.02
2023-01-30T13:59:04.033Z,1.01
2023-01-30T14:02:03.965Z,1.01
2023-01-30T14:04:42.164Z,1.00
2023-01-30T14:07:42.109Z,0.94
2023-01-30T14:10:10.804Z,0.95
2023-01-30T14:12:49.997Z,0.93
2023-01-30T14:15:19.339Z,0.90
2023-01-30T14:17:57.084Z,0.87
2023-01-30T14:20:30.268Z,0.84
2023-01-30T14:23:04.705Z,0.83
2023-01-30T14:25:44.176Z,0.84
2023-01-30T14:28:12.981Z,0.83
2023-01-30T14:30:44.859Z,0.77
2023-01-30T14:33:24.003Z,0.69
2023-01-30T14:36:01.391Z,0.68
2023-01-30T14:38:31.929Z,0.67
2023-01-30T14:41:00.518Z,0.68
2023-01-30T14:43:42.353Z,0.64
2023-01-30T14:46:19.840Z,0.57
2023-01-30T14:48:50.263Z,0.54
2023-01-30T14:51:40.487Z,0.54
2023-01-30T14:54:12.266Z,0.54
2023-01-30T14:56:55.711Z,0.56
2023-01-30T14:59:24.123Z,0.55
2023-01-30T15:01:56.706Z,0.51
2023-01-30T15:04:27.464Z,0.46
2023-01-30T15:06:57.902Z,0.39
2023-01-30T15:09:27.462Z,0.34
2023-01-30T15:12:19.011Z,0.28
2023-01-30T15:14:59.371Z,0.22
2023-01-30T15:18:01.947Z,0.13
2023-01-30T15:20:45.593Z,0.07
2023-01-30T15:23:57.391Z,0.06
2023-01-30T15:26:28.884Z,0.03
2023-01-30T15:29:35.195Z,-0.00
2023-01-30T15:32:15.038Z,-0.05
2023-01-30T15:34:53.873Z,-0.05
2023-01-30T15:37:47.204Z,-0.05
2023-01-30T15:40:15.587Z,-0.09
2023-01-30T15:42:49.832Z,-0.09
2023-01-30T15:46:02.349Z,-0.10
2023-01-30T15:48:41.405Z,-0.11
2023-01-30T15:51:11.881Z,-0.11
2023-01-30T15:53:44.663Z,-0.15
2023-01-30T15:56:18.339Z,-0.14
2023-01-30T15:58:46.671Z,-0.13
2023-01-30T16:01:22.317Z,-0.12
2023-01-30T16:03:51.262Z,-0.11
2023-01-30T16:06:34.510Z,-0.11
2023-01-30T16:09:12.808Z,-0.11
2023-01-30T16:11:42.574Z,-0.15
2023-01-30T16:14:18.194Z,-0.16
2023-01-30T16:17:02.868Z,-0.14
2023-01-30T16:19:32.837Z,-0.20
2023-01-30T16:22:02.682Z,-0.19
2023-01-30T16:24:33.161Z,-0.21
2023-01-30T16:27:06.784Z,-0.22
2023-01-30T16:29:51.363Z,-0.21
2023-01-30T16:32:24.824Z,-0.18
2023-01-30T16:35:31.031Z,-0.16
2023-01-30T16:38:01.113Z,-0.15
2023-01-30T16:40:43.234Z,-0.16
2023-01-30T16:43:23.778Z,-0.17
2023-01-30T16:45:52.571Z,-0.11
2023-01-30T16:48:34.489Z,0.00
2023-01-30T16:51:11.768Z,-0.01
2023-01-30T16:53:46.563Z,-0.00
2023-01-30T16:56:17.083Z,-0.01
2023-01-30T16:58:48.273Z,-0.01
2023-01-30T17:01:16.976Z,-0.03
2023-01-30T17:03:52.183Z,-0.08
2023-01-30T17:06:24.130Z,-0.10
2023-01-30T17:08:54.433Z,-0.11
2023-01-30T17:11:31.793Z,-0.13
2023-01-30T17:14:26.029Z,-0.14
2023-01-30T17:17:04.872Z,-0.14
2023-01-30T17:19:34.128Z,-0.16
2023-01-30T17:22:04.967Z,-0.16
2023-01-30T17:24:33.208Z,-0.13
2023-01-30T17:27:02.769Z,-0.12
2023-01-30T17:29:48.933Z,-0.12
2023-01-30T17:32:17.499Z,-0.07
2023-01-30T17:34:45.982Z,-0.05
2023-01-30T17:37:20.284Z,-0.07
2023-01-30T17:39:48.679Z,-0.11
2023-01-30T17:42:22.576Z,-0.13
2023-01-30T17:44:51.646Z,-0.14
2023-01-30T17:47:21.251Z,-0.16
2023-01-30T17:49:50.060Z,-0.17
2023-01-30T17:52:19.614Z,-0.15
2023-01-30T17:54:48.640Z,-0.16
2023-01-30T17:57:17.354Z,-0.14
2023-01-30T17:59:47.152Z,-0.14
2023-01-30T18:02:15.635Z,-0.12
2023-01-30T18:04:44.108Z,-0.10
2023-01-30T18:07:14.076Z,-0.04
2023-01-30T18:09:42.808Z,0.01
2023-01-30T18:12:11.502Z,-0.04
2023-01-30T18:14:40.074Z,-0.04
2023-01-30T18:17:09.694Z,-0.04
2023-01-30T18:19:39.203Z,-0.03
2023-01-30T18:22:07.777Z,-0.05
2023-01-30T18:24:36.652Z,-0.06
2023-01-30T18:27:05.029Z,-0.07
2023-01-30T18:29:33.618Z,-0.09
2023-01-30T18:32:06.084Z,-0.10
2023-01-30T18:34:34.358Z,-0.08
2023-01-30T18:37:02.968Z,-0.08
2023-01-30T18:39:32.347Z,-0.10
2023-01-30T18:42:02.377Z,-0.11
2023-01-30T18:44:30.691Z,-0.12
2023-01-30T18:46:58.970Z,-0.12
2023-01-30T18:49:27.284Z,-0.14
2023-01-30T18:51:55.548Z,-0.14
2023-01-30T18:54:25.059Z,-0.14
2023-01-30T18:56:53.948Z,-0.14
2023-01-30T18:59:26.593Z,-0.14
2023-01-30T19:01:55.512Z,-0.14
2023-01-30T19:04:23.992Z,-0.15
2023-01-30T19:06:54.962Z,-0.16
2023-01-30T19:09:23.304Z,-0.14
2023-01-30T19:12:10.729Z,-0.13
2023-01-30T19:14:40.137Z,-0.10
2023-01-30T19:17:08.818Z,-0.09
2023-01-30T19:19:37.309Z,-0.10
2023-01-30T19:22:05.557Z,-0.10
2023-01-30T19:24:34.087Z,-0.11
2023-01-30T19:27:04.317Z,-0.11
2023-01-30T19:29:33.688Z,-0.12
2023-01-30T19:32:02.635Z,-0.14
2023-01-30T19:34:31.447Z,-0.14
2023-01-30T19:37:01.458Z,-0.16
2023-01-30T19:39:30.055Z,-0.18
2023-01-30T19:41:58.514Z,-0.22
2023-01-30T19:44:26.994Z,-0.23
2023-01-30T19:46:56.090Z,-0.24
2023-01-30T19:49:25.388Z,-0.25
2023-01-30T19:51:54.070Z,-0.26
2023-01-30T19:54:22.551Z,-0.28
2023-01-30T19:56:52.052Z,-0.29
2023-01-30T19:59:20.537Z,-0.29
2023-01-30T20:01:49.636Z,-0.27
2023-01-30T20:04:18.512Z,-0.28
2023-01-30T20:06:49.744Z,-0.29
2023-01-30T20:09:19.478Z,-0.29
2023-01-30T20:11:48.153Z,-0.31
2023-01-30T20:14:16.831Z,-0.33
2023-01-30T20:16:45.833Z,-0.35
2023-01-30T20:19:15.645Z,-0.38
2023-01-30T20:21:44.327Z,-0.44
2023-01-30T20:24:17.341Z,-0.48
2023-01-30T20:26:48.335Z,-0.50
2023-01-30T20:29:18.271Z,-0.53
2023-01-30T20:31:47.380Z,-0.52
2023-01-30T20:34:16.358Z,-0.51
2023-01-30T20:36:44.933Z,-0.53
2023-01-30T20:39:17.293Z,-0.53
2023-01-30T20:41:45.669Z,-0.52
2023-01-30T20:44:14.523Z,-0.53
2023-01-30T20:46:46.063Z,-0.52
2023-01-30T20:49:16.534Z,-0.51
2023-01-30T20:51:46.240Z,-0.51
2023-01-30T20:54:15.140Z,-0.53
2023-01-30T20:56:45.996Z,-0.54
2023-01-30T20:59:19.051Z,-0.56
2023-01-30T21:01:47.631Z,-0.57
2023-01-30T21:04:16.605Z,-0.58
2023-01-30T21:06:46.432Z,-0.59
2023-01-30T21:09:20.788Z,-0.58
2023-01-30T21:11:51.387Z,-0.55
2023-01-30T21:14:20.168Z,-0.54
2023-01-30T21:16:49.731Z,-0.52
2023-01-30T21:19:18.766Z,-0.52
2023-01-30T21:21:51.363Z,-0.59
2023-01-30T21:24:24.972Z,-0.63
2023-01-30T21:26:54.129Z,-0.62
2023-01-30T21:29:24.273Z,-0.61
2023-01-30T21:31:53.507Z,-0.59
2023-01-30T21:34:22.343Z,-0.59
2023-01-30T21:37:22.973Z,-0.55
2023-01-30T21:40:09.887Z,-0.49
2023-01-30T21:42:57.595Z,-0.46
2023-01-30T21:45:26.397Z,-0.45
2023-01-30T21:47:54.973Z,-0.49
2023-01-30T21:50:23.657Z,-0.43
2023-01-30T21:52:52.341Z,-0.42
2023-01-30T21:55:21.423Z,-0.43
2023-01-30T21:57:50.014Z,-0.45
2023-01-30T22:00:18.908Z,-0.47
2023-01-30T22:02:49.840Z,-0.47
2023-01-30T22:05:18.807Z,-0.46
2023-01-30T22:07:47.433Z,-0.47
2023-01-30T22:10:16.608Z,-0.48
2023-01-30T22:12:46.424Z,-0.49
2023-01-30T22:15:15.010Z,-0.52
2023-01-30T22:17:43.888Z,-0.55
2023-01-30T22:20:13.188Z,-0.55
2023-01-30T22:22:41.563Z,-0.54
2023-01-30T22:25:11.892Z,-0.57
2023-01-30T22:27:40.275Z,-0.56
2023-01-30T22:30:09.763Z,-0.55
2023-01-30T22:32:40.812Z,-0.52
2023-01-30T22:35:09.794Z,-0.52
2023-01-30T22:37:38.429Z,-0.55
2023-01-30T22:40:08.185Z,-0.54
2023-01-30T22:42:37.487Z,-0.54
2023-01-30T22:45:06.935Z,-0.53
2023-01-30T22:47:36.035Z,-0.54
2023-01-30T22:50:06.943Z,-0.53
2023-01-30T22:52:35.799Z,-0.51
2023-01-30T22:55:04.597Z,-0.52
2023-01-30T22:57:35.779Z,-0.54
2023-01-30T23:00:05.494Z,-0.54
2023-01-30T23:02:33.867Z,-0.53
2023-01-30T23:05:02.715Z,-0.54
2023-01-30T23:07:32.013Z,-0.57
2023-01-30T23:10:00.481Z,-0.61
2023-01-30T23:12:48.725Z,-0.59
2023-01-30T23:15:17.622Z,-0.59
2023-01-30T23:18:06.479Z,-0.62
2023-01-30T23:20:35.521Z,-0.60
2023-01-30T23:23:07.226Z,-0.63
2023-01-30T23:25:40.346Z,-0.60
2023-01-30T23:28:09.299Z,-0.62
2023-01-30T23:30:39.025Z,-0.60
2023-01-30T23:33:07.791Z,-0.52
2023-01-30T23:35:36.640Z,-0.57
2023-01-30T23:38:17.034Z,-0.59
2023-01-30T23:40:47.366Z,-0.61
2023-01-30T23:43:16.347Z,-0.62
2023-01-30T23:45:45.055Z,-0.61
2023-01-30T23:48:13.528Z,-0.59
2023-01-30T23:50:42.515Z,-0.45
2023-01-30T23:53:10.882Z,-0.40
2023-01-30T23:55:39.883Z,-0.45
2023-01-30T23:58:08.576Z,-0.46
